Espace membre
Imprimable
Brugge, 07/12/2018, BEL - Kerstloop Brugge
Liste des rapports > 10km - Classement
Recherche: Page: [1]
134 Entrées
 
Les réclamations ne sont plus acceptées, les résultats sont considérés comme définitifs.
RangNrNomAgeIOCEquipeTempsTkmMoy.ScrLocalité
1.1933FCALEBOUT Els45BELKBC BANK & VERZEKERINGEN47:144:44 12.71420
2.131FKINTHAERT Hilde51BEL47:244:45 12.66437BRUGGE
3.1664FVIANE Ruth52BEL47:254:45 12.66439BRUGGE
4.598FBOLLE Sabine45BEL48:324:52 12.37489ICHTEGEM
5.619FVIRGINIE Tanghe46BEL48:514:54 12.28515VELDEGEM
6.1587FVAN DEN BERGHE Sandra50BELOLYMPIC BRUGGE49:204:56 12.16544BRUGGE
7.3447FRONSE Griet46BEL49:414:59 12.08571AALTER
8.3285FDEBRUYNE Patricia51BELVERFAILLIE BAUWENS49:434:59 12.07575MEULEBEKE
9.1311FDENDONCKER Petra47BELAV MOLENLAND49:434:59 12.07576MEULEBEK
10.1374FDELILLE Lieve46BELBASISSCHOOL SPERMALIE49:474:59 12.06578
11.723FCATTOOR Katrien46BEL50:585:06 11.77660BRUGGE
12.646FCNOCKAERT Nele49BELBEISBROEKLOPERS51:015:07 11.76665ZEVERGEM
13.3384FAVERBEKE Katrien52BELBEISBROEKLOPERS51:055:07 11.75669DIKSMUIDE WOUMEN
14.178FNAESSENS Isabelle46BEL52:085:13 11.51747WAKKEN
15.1934FMEIRE Martine45BELKBC BANK & VERZEKERINGEN52:165:14 11.48756
16.643FCOUDEVILLE Claudia50BELBEISBROEKLOPERS52:375:16 11.40770SNELLEGEM
17.962FCARTRYSSE Sophie50BELBASISSCHOOL SPERMALIE53:185:20 11.26805
18.449FALLEMEERSCH Ann47BEL53:415:23 11.18838ASSEBROEK
19.3133FDE GROOTE Nancy47BELDEVA53:415:23 11.18839KNOKKE
20.3403FMISSAULT Marina54BEL53:495:23 11.15843DUDZELE
21.1003FVERVAECK Charlotte46BEL53:505:23 11.15844DESSELGEM
22.1450FVAN DE VOORDE Evelyn45BEL53:545:24 11.13851ASSEBROEK
23.3402FBRUYNOOGHE Kathy45BEL53:595:24 11.12857OOSTKAMP
24.255FZOMERLINCK Dominique46BEL54:295:27 11.01897ANZEGEM
25.183FDECLERCQ Lut48BEL54:305:27 11.01900DESSELGEM
26.59FGALLIOT Annick48BELTTBR55:085:31 10.88955BREDENE
27.651FVERSCHAEVE Heidi46BELBEISBROEKLOPERS55:205:32 10.84977VARSENARE
28.1642FSINNAEVE Sylvie50BEL55:305:33 10.81986NIEUWPOORT
29.641FPYCK Kristel54BELBEISBROEKLOPERS55:405:34 10.781005VARSENARE
30.639FDE JONGHE Mieke48BELBEISBROEKLOPERS55:405:34 10.781006ZUIENKERKE
31.164FDE CUYPER Isabelle46BEL55:455:35 10.761015BEERNEM
32.282FLIEVENS Veerle45BEL56:055:37 10.701036TORHOUT
33.3138FKNOCKAERT Georgette53BEL56:295:39 10.621095OOSTKAMP
34.306FDE CALUWE Mania45BEL56:305:39 10.621097ASSEBROEK
35.954FFORMESYN Elke51BELBASISSCHOOL SPERMALIE56:395:40 10.591105
36.597FFASTENAEKELS Karine46BEL57:235:45 10.461171OOSTENDE
37.3453FVERVAECKE Fanny48BELVGT-LOPERS57:355:46 10.421188ZWEVEGEM
38.3228FLAPORTE Patricia49BEL57:395:46 10.411195TIELT
39.940FLANNOY Nadine49BELUNICARS BRUGGE57:555:48 10.361220
40.676FINGE Deschuymer51BELPEDIATRIE AZ SINT JAN57:565:48 10.361224ASSEBROEK
41.354FBOUDEWYN Inge54BELBAMO TEAM58:075:49 10.321238MOORSELE
42.149FZONNEKEYN Pascale51BEL58:095:49 10.321241BREDENE
43.3437FMOURISSE Julie48BEL58:145:50 10.301246JABBEKE
44.992FBOUUAERT Marleen50BEL58:195:50 10.291250ASSEBROEK
45.285FVERMEULEN Damienne50BEL58:205:50 10.291251SIJSELE
46.377FVELLE Nancy51BEL58:255:51 10.271258GISTEL
47.1346FDANNEELS Katty51BELDANNEELS NV58:265:51 10.271264
48.1350FBULTINCK Katty46BELDANNEELS NV58:265:51 10.271266
49.1848FVOLCKAERT Laurence46BELTUI58:315:52 10.261273OOSTENDE
50.1895FVERMAST Dominique45BELCALLANT VERZEKERINGEN58:505:53 10.201288VARSENARE
51.379FCOPPEJANS Gitta46BEL59:185:56 10.121323SINT ANDRIES
52.1135FBROUCKAERT Ingrid54BEL59:345:58 10.071337BRUGGE
53.567FSTEENKISTE Anuschka51BEL59:355:58 10.071339OOSTKAMP
54.695FVERBAUWHEDE Isabelle46BELTEAM BAMO59:395:58 10.061345WEVELGEM
55.2272FDE CLERCK Vicky47BEL59:445:59 10.051350BLANKENBERGE
56.1357FCASERT Sylvia51BELVZW VIRO1:00:036:01 9.991384
57.1362FSCHELPE Siska51BELVZW VIRO1:00:046:01 9.991388
58.625FGHEYSEN Patricia49BELDIVA'S1:00:116:02 9.971400BRUGGE
59.748FVERBRUGGHE Veerle48BEL1:00:126:02 9.971402AALTER
60.111FFRANCO Catherine48FRA1:00:266:03 9.931416GROOT- BIJGAARDEN
61.331FLABAERE Veroniek53BEL1:00:316:04 9.921418RUMBEKE
62.489FWATTÉ Annick51BELJOGGING LIERDE1:00:416:05 9.891432DEURLE
63.1174FFLOREAL Isabelle48BELIRONFRIENDS1:00:576:06 9.851452ZEEBRUGGE
64.3250FDESUTTER Valérie49BEL1:01:016:07 9.841461KNOKKE-HEIST
65.1225FBAL Ilse51BEL1:01:226:09 9.781488
66.1418FDE VALCK Tine46BEL1:01:266:09 9.771491RUDDERVOORDE
67.564FDEPOTTER Carine47BEL1:01:276:09 9.771492KOKSIJDE
68.3355FSEMETIER Sonja50BEL1:01:466:11 9.711512ARDOOIE
69.128FWINDELS Veerle51BEL1:01:476:11 9.711514TIELT
70.1124FDE BRABANDERE Lieve47BELAVMO1:01:476:11 9.711515ARDOOIE
71.717FSTUYTS Britt46BEL1:01:506:11 9.701521MERENDREE
72.1322FBALANCK Kaat53BELDDR1:01:546:12 9.701523SINT-MICHIELS
73.1323FDECLERCK Françoise54BELDDR1:01:546:12 9.701524SINT-MICHIELS
74.3062FBROOS Katty46BELTEAM PROXY1:01:556:12 9.691528BLANKENBERGE
75.1058FVANHEE Fabienne49BEL1:02:166:14 9.641560DE HAAN
76.2972FCUMPTICH Hilde46BEL1:02:206:14 9.631566SINT ANDRIES
77.786FVERROENS Ketelijne47BELKIWANIS1:02:246:15 9.621573BLANKENBERGE
78.1295FKAMOEN Kathy49BELKIWANIS ACHELOIS1:02:246:15 9.621574BLANKENBERGE
79.1013FDE CUBBER Leen46BEL1:02:336:16 9.591582BALEGEM
80.3130FLAURYS Kathleen48BEL1:02:366:16 9.591588VARSENARE
81.794FVANMARCKE Gwen53BELLADIES RUNNING CENTER1:02:366:16 9.591589BRUGGE
82.1292FVAN EENOO Sylvie48BEL1:03:116:20 9.501619SIJSELE
83.3007FJACOBS Isabelle54BEL1:03:156:20 9.491623LOKEREN
84.1886FADRIAENS Kris50BELQUARTUS VEURNE / POPERING1:03:176:20 9.481626OOSTENDE
85.1111FLOGGHE Hilde48BEL1:03:186:20 9.481627BRUGGE
86.3445FANECA Kathy49BEL1:03:366:22 9.441638GISTEL
87.1390FVANWASSENHOVE Arianne49BELDELHAIZE1:03:466:23 9.411651BRUGGE
88.1927FVANEECHOUTTE Veerle49BELKBC BANK & VERZEKERINGEN1:03:486:23 9.411657
89.1100FDE PRETER Renate54BELSTAD BRUGGE1:03:566:24 9.391667BRUGGE
90.3363FVANPACHTENBEKE Ann45BEL1:04:116:26 9.351675SIJSELE
91.822FDEBOYSERE Annick54BEL1:04:116:26 9.351676SINT-KRUIS
92.326FDE LOVE Sandra45BEL1:04:166:26 9.341686ADEGEM
93.1593FGILQUIN Michelle47BEL1:04:286:27 9.311701BAVEGEM
94.3210FHUBRECHTSEN Mieke48BEL1:04:376:28 9.291709LEFFINGE
95.263FCLAEYS Ann49BEL1:04:406:28 9.281710DUDZELE
96.1211FCARETTE Sabine51BEL1:04:516:30 9.251719
97.1881FSNAUWAERT Isabelle47BELLEIF WEST VLAANDEREN1:04:536:30 9.251721
98.1251FVAN DE VELDE Katrien47BEL1:05:076:31 9.221737SINT KRUIS
99.981FDANNEELS Carine54BELBASISSCHOOL SPERMALIE1:05:116:32 9.211742
100.777FKINDT Mira47BELALBERT VASTGOED1:05:126:32 9.201745BRUGGE
101.630FBLOMME Veronique46BELBEISBROEKLOPERS1:05:136:32 9.201746BRUGGE
102.634FLAMBRECHT Benedicte52BELBEISBROEKLOPERS1:05:136:32 9.201747BRUGGE
103.948FRABAEYS Nancy47BELUNICARS BRUGGE1:05:226:33 9.181755
104.951FVERHELST Leen47BELUNICARS BRUGGE1:05:256:33 9.171756
105.950FVANWYNSBERGHE Sabine47BELUNICARS BRUGGE1:05:266:33 9.171758
106.368FDE MEYER Anja45BEL1:05:306:33 9.161762VELDEGEM
107.3313FSPRIET Christophe53BEL1:05:466:35 9.121777KOKSIJDE
108.3314FVAN DE VOORDE Hilde53BEL1:05:476:35 9.121779KOKSIJDE
109.1439FNANCY Caeyzeele46BEL1:06:006:36 9.091802BOEZINGE
110.1310FDELY Els45BEL1:06:006:36 9.091805OOSTENDE
111.3486FVAN HASSEL Ann46BEL1:06:046:37 9.081813OEDELEM
112.665FLOUWAGE Cathy45BELECS CORPORATE ZEEBRUGGE1:06:056:37 9.081815BLANKENBERGE
113.1645FCATRY Muriëlle46BEL1:06:056:37 9.081817BAVIKHOVE
114.275FJANS Cynthia45BELLADIES RUNNING CENTER1:06:066:37 9.081819BRUGGE
115.1427FDAVID Kathleen45BEL1:06:166:38 9.061825ZEDELGEM
116.1395FVAN WEERT Annick48BELDELHAIZE1:06:366:40 9.011832KONTICH
117.3365FBERTELOOT Astrid49BELDAPALO1:06:476:41 8.981845LENDELEDE
118.293FSCHAERLAEKENS Katelijne46BEL1:07:146:44 8.921857SINT ANDRIES
119.1604FVANCAUWENBERGHE Wendy46BELCTRL GYM1:07:186:44 8.921863BRUGGE
120.3330FDE NEVE Ann45BEL1:07:396:46 8.871877AALTER
121.1389FDE SCHOOLMEESTER Brigitte47BELDELHAIZE1:07:556:48 8.831892BLANKENBERGE
122.391FDHOORE Veerle51BELECS CORPORATE ZEEBRUGGE1:07:566:48 8.831894BRUGGE
123.1261FDEWULF Krista47BEL1:08:076:49 8.811902LISSEWEGE
124.854FVAN DEN BERGHE Ilse49BELBTCMP1:08:336:52 8.751920BRUGGE
125.3077FVERNIEUWE Maaike47BEL1:09:386:58 8.621941ASSEBROEK
126.3074FVERNIEUWE Lies46BEL1:09:396:58 8.621942SINT-ANDRIES
127.1951FDESEURE Elsje47BELPROVINCIE WEST VLAANDEREN1:09:436:59 8.611945EVERGEM
128.339FVANDENMEERSCHAUT Katelijne54BEL1:09:587:00 8.581952WAARDAMME
129.1304FOOMS Ericia45BELRDS BRUGGE1:10:447:05 8.481964DENDERMONDE
130.3288FVERFAILLIE Ilse51BELVERFAILLIE BAUWENS1:12:157:14 8.311987KNOKKE
131.1724FCLEMMENS Hilde47BEL1:12:537:18 8.231990SINT-ANDRIES
132.3015FWYSEUR Marianne51BEL1:13:127:20 8.201992BRUGGE
DNF1224FPILLAERT Natalie47BELSINT ANDRIES
DNF669FSTAEL Tamara46BELECS CORPORATE ZEEBRUGGELISSEWEGE
DNF: abandon; DSQ: disqualifié; Vitesse en km/h
Page: [1]